sensor_id;sensor_type;location;lat;lon;timestamp;P1;durP1;ratioP1;P2;durP2;ratioP2
31073;SDS011;17730;53.552;9.940;2022-10-18T00:00:57;23.95;;;15.35;;
31073;SDS011;17730;53.552;9.940;2022-10-18T00:03:22;36.88;;;16.48;;
31073;SDS011;17730;53.552;9.940;2022-10-18T00:05:49;26.95;;;16.52;;
31073;SDS011;17730;53.552;9.940;2022-10-18T00:08:16;28.30;;;15.23;;
31073;SDS011;17730;53.552;9.940;2022-10-18T00:10:42;28.52;;;16.60;;
31073;SDS011;17730;53.552;9.940;2022-10-18T00:13:09;30.92;;;17.55;;
31073;SDS011;17730;53.552;9.940;2022-10-18T00:15:35;30.00;;;16.58;;
31073;SDS011;17730;53.552;9.940;2022-10-18T00:18:00;32.17;;;18.55;;
31073;SDS011;17730;53.552;9.940;2022-10-18T00:20:26;35.70;;;17.38;;
31073;SDS011;17730;53.552;9.940;2022-10-18T00:22:52;32.83;;;16.77;;
31073;SDS011;17730;53.552;9.940;2022-10-18T00:25:18;36.40;;;18.83;;
31073;SDS011;17730;53.552;9.940;2022-10-18T00:27:44;35.42;;;18.48;;
31073;SDS011;17730;53.552;9.940;2022-10-18T00:30:09;30.08;;;18.20;;
31073;SDS011;17730;53.552;9.940;2022-10-18T00:32:38;39.60;;;19.85;;
31073;SDS011;17730;53.552;9.940;2022-10-18T00:35:06;41.22;;;19.30;;
31073;SDS011;17730;53.552;9.940;2022-10-18T00:37:32;33.85;;;18.13;;
31073;SDS011;17730;53.552;9.940;2022-10-18T00:39:59;32.83;;;18.58;;
31073;SDS011;17730;53.552;9.940;2022-10-18T00:42:29;34.83;;;18.40;;
31073;SDS011;17730;53.552;9.940;2022-10-18T00:44:59;34.60;;;19.30;;
31073;SDS011;17730;53.552;9.940;2022-10-18T00:47:36;41.80;;;19.42;;
31073;SDS011;17730;53.552;9.940;2022-10-18T00:50:03;43.10;;;19.35;;
31073;SDS011;17730;53.552;9.940;2022-10-18T00:52:36;40.25;;;19.48;;
31073;SDS011;17730;53.552;9.940;2022-10-18T00:55:06;43.90;;;21.92;;
31073;SDS011;17730;53.552;9.940;2022-10-18T00:57:32;44.28;;;20.88;;
31073;SDS011;17730;53.552;9.940;2022-10-18T00:59:59;42.42;;;20.95;;
31073;SDS011;17730;53.552;9.940;2022-10-18T01:02:25;42.08;;;19.70;;
31073;SDS011;17730;53.552;9.940;2022-10-18T01:04:50;44.88;;;20.75;;
31073;SDS011;17730;53.552;9.940;2022-10-18T01:15:34;43.72;;;22.35;;
31073;SDS011;17730;53.552;9.940;2022-10-18T01:18:09;47.05;;;22.75;;
31073;SDS011;17730;53.552;9.940;2022-10-18T01:20:54;47.92;;;24.48;;
31073;SDS011;17730;53.552;9.940;2022-10-18T01:31:47;49.17;;;25.33;;
31073;SDS011;17730;53.552;9.940;2022-10-18T01:34:21;53.05;;;25.95;;
31073;SDS011;17730;53.552;9.940;2022-10-18T01:36:50;54.50;;;26.98;;
31073;SDS011;17730;53.552;9.940;2022-10-18T01:39:20;55.58;;;27.60;;
31073;SDS011;17730;53.552;9.940;2022-10-18T01:41:50;50.60;;;25.27;;
31073;SDS011;17730;53.552;9.940;2022-10-18T01:44:19;49.67;;;26.15;;
31073;SDS011;17730;53.552;9.940;2022-10-18T01:46:48;59.17;;;26.05;;
31073;SDS011;17730;53.552;9.940;2022-10-18T01:49:16;48.63;;;26.50;;
31073;SDS011;17730;53.552;9.940;2022-10-18T01:51:42;60.20;;;27.35;;
31073;SDS011;17730;53.552;9.940;2022-10-18T01:54:08;53.00;;;26.27;;
31073;SDS011;17730;53.552;9.940;2022-10-18T01:59:27;53.40;;;25.63;;
31073;SDS011;17730;53.552;9.940;2022-10-18T02:07:40;64.75;;;28.30;;
31073;SDS011;17730;53.552;9.940;2022-10-18T02:10:25;52.88;;;26.45;;
31073;SDS011;17730;53.552;9.940;2022-10-18T02:12:59;53.17;;;24.63;;
31073;SDS011;17730;53.552;9.940;2022-10-18T02:15:28;56.13;;;28.02;;
31073;SDS011;17730;53.552;9.940;2022-10-18T02:17:58;57.85;;;26.88;;
31073;SDS011;17730;53.552;9.940;2022-10-18T02:20:27;55.20;;;27.83;;
31073;SDS011;17730;53.552;9.940;2022-10-18T02:22:56;63.55;;;28.55;;
31073;SDS011;17730;53.552;9.940;2022-10-18T02:25:24;52.47;;;28.02;;
31073;SDS011;17730;53.552;9.940;2022-10-18T02:27:53;57.58;;;27.55;;
31073;SDS011;17730;53.552;9.940;2022-10-18T02:30:23;56.38;;;27.83;;
31073;SDS011;17730;53.552;9.940;2022-10-18T02:33:03;54.28;;;27.50;;
31073;SDS011;17730;53.552;9.940;2022-10-18T02:35:38;54.15;;;25.88;;
31073;SDS011;17730;53.552;9.940;2022-10-18T02:38:09;52.10;;;26.15;;
31073;SDS011;17730;53.552;9.940;2022-10-18T02:40:38;50.70;;;27.75;;
31073;SDS011;17730;53.552;9.940;2022-10-18T02:43:04;53.65;;;27.73;;
31073;SDS011;17730;53.552;9.940;2022-10-18T02:45:30;54.03;;;27.60;;
31073;SDS011;17730;53.552;9.940;2022-10-18T02:47:57;60.17;;;27.55;;
31073;SDS011;17730;53.552;9.940;2022-10-18T02:50:23;58.88;;;28.13;;
31073;SDS011;17730;53.552;9.940;2022-10-18T02:52:48;49.65;;;27.42;;
31073;SDS011;17730;53.552;9.940;2022-10-18T02:55:14;53.78;;;29.33;;
31073;SDS011;17730;53.552;9.940;2022-10-18T02:57:40;63.03;;;28.20;;
31073;SDS011;17730;53.552;9.940;2022-10-18T03:00:06;59.63;;;28.73;;
31073;SDS011;17730;53.552;9.940;2022-10-18T03:02:32;58.28;;;28.60;;
31073;SDS011;17730;53.552;9.940;2022-10-18T03:04:58;56.05;;;27.80;;
31073;SDS011;17730;53.552;9.940;2022-10-18T03:07:23;56.25;;;28.58;;
31073;SDS011;17730;53.552;9.940;2022-10-18T03:09:49;58.33;;;28.80;;
31073;SDS011;17730;53.552;9.940;2022-10-18T03:12:15;59.33;;;29.77;;
31073;SDS011;17730;53.552;9.940;2022-10-18T03:14:41;53.10;;;29.38;;
31073;SDS011;17730;53.552;9.940;2022-10-18T03:17:06;66.05;;;30.10;;
31073;SDS011;17730;53.552;9.940;2022-10-18T03:19:32;63.42;;;29.15;;
31073;SDS011;17730;53.552;9.940;2022-10-18T03:21:58;63.70;;;29.45;;
31073;SDS011;17730;53.552;9.940;2022-10-18T03:24:23;59.83;;;28.38;;
31073;SDS011;17730;53.552;9.940;2022-10-18T03:26:49;64.38;;;27.63;;
31073;SDS011;17730;53.552;9.940;2022-10-18T03:29:20;68.63;;;30.23;;
31073;SDS011;17730;53.552;9.940;2022-10-18T03:31:46;63.72;;;30.08;;
31073;SDS011;17730;53.552;9.940;2022-10-18T03:34:11;64.72;;;28.75;;
31073;SDS011;17730;53.552;9.940;2022-10-18T03:36:37;67.65;;;28.10;;
31073;SDS011;17730;53.552;9.940;2022-10-18T03:39:05;65.90;;;29.08;;
31073;SDS011;17730;53.552;9.940;2022-10-18T03:41:30;65.97;;;28.98;;
31073;SDS011;17730;53.552;9.940;2022-10-18T03:43:56;62.17;;;29.83;;
31073;SDS011;17730;53.552;9.940;2022-10-18T03:46:21;58.13;;;28.90;;
31073;SDS011;17730;53.552;9.940;2022-10-18T03:48:47;62.00;;;30.42;;
31073;SDS011;17730;53.552;9.940;2022-10-18T03:51:13;69.25;;;30.17;;
31073;SDS011;17730;53.552;9.940;2022-10-18T03:53:38;70.00;;;30.67;;
31073;SDS011;17730;53.552;9.940;2022-10-18T03:56:04;70.40;;;31.30;;
31073;SDS011;17730;53.552;9.940;2022-10-18T03:58:30;69.90;;;33.17;;
31073;SDS011;17730;53.552;9.940;2022-10-18T04:00:55;68.38;;;30.60;;
31073;SDS011;17730;53.552;9.940;2022-10-18T04:03:21;77.38;;;32.58;;
31073;SDS011;17730;53.552;9.940;2022-10-18T04:05:48;67.07;;;32.45;;
31073;SDS011;17730;53.552;9.940;2022-10-18T04:08:14;72.85;;;33.25;;
31073;SDS011;17730;53.552;9.940;2022-10-18T04:10:40;72.82;;;33.20;;
31073;SDS011;17730;53.552;9.940;2022-10-18T04:13:06;66.55;;;34.00;;
31073;SDS011;17730;53.552;9.940;2022-10-18T04:15:32;68.55;;;33.10;;
31073;SDS011;17730;53.552;9.940;2022-10-18T04:17:58;69.75;;;32.83;;
31073;SDS011;17730;53.552;9.940;2022-10-18T04:20:24;63.58;;;31.50;;
31073;SDS011;17730;53.552;9.940;2022-10-18T04:22:50;72.95;;;32.13;;
31073;SDS011;17730;53.552;9.940;2022-10-18T04:25:18;68.70;;;32.28;;
31073;SDS011;17730;53.552;9.940;2022-10-18T04:27:45;79.30;;;33.05;;
31073;SDS011;17730;53.552;9.940;2022-10-18T04:30:10;70.13;;;31.25;;
31073;SDS011;17730;53.552;9.940;2022-10-18T04:32:36;77.78;;;33.65;;
31073;SDS011;17730;53.552;9.940;2022-10-18T04:35:02;74.43;;;31.83;;
31073;SDS011;17730;53.552;9.940;2022-10-18T04:37:27;69.68;;;31.38;;
31073;SDS011;17730;53.552;9.940;2022-10-18T04:39:53;71.10;;;31.35;;
31073;SDS011;17730;53.552;9.940;2022-10-18T04:42:19;68.60;;;31.35;;
31073;SDS011;17730;53.552;9.940;2022-10-18T04:44:45;78.13;;;32.67;;
31073;SDS011;17730;53.552;9.940;2022-10-18T04:47:11;80.78;;;34.42;;
31073;SDS011;17730;53.552;9.940;2022-10-18T04:49:37;85.38;;;35.00;;
31073;SDS011;17730;53.552;9.940;2022-10-18T04:52:02;82.28;;;35.33;;
31073;SDS011;17730;53.552;9.940;2022-10-18T04:54:28;91.18;;;36.97;;
31073;SDS011;17730;53.552;9.940;2022-10-18T04:56:54;82.57;;;34.55;;
31073;SDS011;17730;53.552;9.940;2022-10-18T04:59:19;90.03;;;36.78;;
31073;SDS011;17730;53.552;9.940;2022-10-18T05:01:45;219.43;;;38.45;;
31073;SDS011;17730;53.552;9.940;2022-10-18T05:04:11;148.57;;;38.15;;
31073;SDS011;17730;53.552;9.940;2022-10-18T05:06:40;153.57;;;38.38;;
31073;SDS011;17730;53.552;9.940;2022-10-18T05:09:06;136.43;;;37.17;;
31073;SDS011;17730;53.552;9.940;2022-10-18T05:11:32;123.93;;;36.22;;
31073;SDS011;17730;53.552;9.940;2022-10-18T05:13:57;194.05;;;36.03;;
31073;SDS011;17730;53.552;9.940;2022-10-18T05:16:23;147.73;;;33.83;;
31073;SDS011;17730;53.552;9.940;2022-10-18T05:18:49;116.15;;;35.80;;
31073;SDS011;17730;53.552;9.940;2022-10-18T05:21:15;82.50;;;34.67;;
31073;SDS011;17730;53.552;9.940;2022-10-18T05:23:41;89.03;;;33.38;;
31073;SDS011;17730;53.552;9.940;2022-10-18T05:26:07;85.15;;;32.42;;
31073;SDS011;17730;53.552;9.940;2022-10-18T05:28:33;86.72;;;32.55;;
31073;SDS011;17730;53.552;9.940;2022-10-18T05:31:00;81.90;;;35.78;;
31073;SDS011;17730;53.552;9.940;2022-10-18T05:33:27;103.80;;;34.17;;
31073;SDS011;17730;53.552;9.940;2022-10-18T05:35:53;79.18;;;33.85;;
31073;SDS011;17730;53.552;9.940;2022-10-18T05:38:19;90.03;;;36.25;;
31073;SDS011;17730;53.552;9.940;2022-10-18T05:40:45;80.50;;;35.40;;
31073;SDS011;17730;53.552;9.940;2022-10-18T05:43:10;73.55;;;32.35;;
31073;SDS011;17730;53.552;9.940;2022-10-18T05:45:36;74.65;;;34.45;;
31073;SDS011;17730;53.552;9.940;2022-10-18T05:48:02;79.40;;;35.95;;
31073;SDS011;17730;53.552;9.940;2022-10-18T05:50:29;78.13;;;35.05;;
31073;SDS011;17730;53.552;9.940;2022-10-18T05:52:55;82.32;;;33.22;;
31073;SDS011;17730;53.552;9.940;2022-10-18T05:55:21;76.32;;;32.15;;
31073;SDS011;17730;53.552;9.940;2022-10-18T05:57:48;77.57;;;32.00;;
31073;SDS011;17730;53.552;9.940;2022-10-18T06:00:14;73.28;;;33.40;;
31073;SDS011;17730;53.552;9.940;2022-10-18T06:02:40;62.85;;;30.02;;
31073;SDS011;17730;53.552;9.940;2022-10-18T06:05:06;80.03;;;32.80;;
31073;SDS011;17730;53.552;9.940;2022-10-18T06:07:32;67.20;;;30.77;;
31073;SDS011;17730;53.552;9.940;2022-10-18T06:09:57;74.20;;;30.00;;
31073;SDS011;17730;53.552;9.940;2022-10-18T06:12:23;62.88;;;29.63;;
31073;SDS011;17730;53.552;9.940;2022-10-18T06:14:49;75.47;;;28.42;;
31073;SDS011;17730;53.552;9.940;2022-10-18T06:17:14;66.50;;;27.83;;
31073;SDS011;17730;53.552;9.940;2022-10-18T06:19:40;62.78;;;26.92;;
31073;SDS011;17730;53.552;9.940;2022-10-18T06:22:08;77.07;;;28.73;;
31073;SDS011;17730;53.552;9.940;2022-10-18T06:24:34;66.60;;;26.70;;
31073;SDS011;17730;53.552;9.940;2022-10-18T06:27:00;59.38;;;24.70;;
31073;SDS011;17730;53.552;9.940;2022-10-18T06:29:32;71.53;;;27.08;;
31073;SDS011;17730;53.552;9.940;2022-10-18T06:31:57;67.00;;;26.35;;
31073;SDS011;17730;53.552;9.940;2022-10-18T06:34:23;57.85;;;23.90;;
31073;SDS011;17730;53.552;9.940;2022-10-18T06:36:49;73.35;;;39.22;;
31073;SDS011;17730;53.552;9.940;2022-10-18T06:39:14;65.03;;;25.25;;
31073;SDS011;17730;53.552;9.940;2022-10-18T06:41:40;52.45;;;23.08;;
31073;SDS011;17730;53.552;9.940;2022-10-18T06:44:05;47.00;;;21.90;;
31073;SDS011;17730;53.552;9.940;2022-10-18T06:46:38;46.92;;;22.00;;
31073;SDS011;17730;53.552;9.940;2022-10-18T06:49:07;42.33;;;20.80;;
31073;SDS011;17730;53.552;9.940;2022-10-18T06:51:33;47.35;;;20.88;;
31073;SDS011;17730;53.552;9.940;2022-10-18T06:53:58;47.55;;;22.33;;
31073;SDS011;17730;53.552;9.940;2022-10-18T06:56:24;49.70;;;21.38;;
31073;SDS011;17730;53.552;9.940;2022-10-18T06:58:50;46.88;;;21.17;;
31073;SDS011;17730;53.552;9.940;2022-10-18T07:01:16;53.70;;;21.98;;
31073;SDS011;17730;53.552;9.940;2022-10-18T07:03:43;50.40;;;21.70;;
31073;SDS011;17730;53.552;9.940;2022-10-18T07:06:11;46.60;;;21.42;;
31073;SDS011;17730;53.552;9.940;2022-10-18T07:08:38;49.00;;;22.35;;
31073;SDS011;17730;53.552;9.940;2022-10-18T07:11:05;42.60;;;21.63;;
31073;SDS011;17730;53.552;9.940;2022-10-18T07:13:32;60.35;;;22.83;;
31073;SDS011;17730;53.552;9.940;2022-10-18T07:16:08;48.65;;;22.42;;
31073;SDS011;17730;53.552;9.940;2022-10-18T07:18:37;48.47;;;24.23;;
31073;SDS011;17730;53.552;9.940;2022-10-18T07:21:05;56.28;;;23.30;;
31073;SDS011;17730;53.552;9.940;2022-10-18T07:23:35;51.72;;;23.10;;
31073;SDS011;17730;53.552;9.940;2022-10-18T07:26:03;55.40;;;21.20;;
31073;SDS011;17730;53.552;9.940;2022-10-18T07:28:56;47.58;;;21.45;;
31073;SDS011;17730;53.552;9.940;2022-10-18T07:31:25;44.92;;;19.73;;
31073;SDS011;17730;53.552;9.940;2022-10-18T07:33:51;41.35;;;20.60;;
31073;SDS011;17730;53.552;9.940;2022-10-18T07:36:17;41.42;;;19.83;;
31073;SDS011;17730;53.552;9.940;2022-10-18T07:38:45;46.13;;;20.52;;
31073;SDS011;17730;53.552;9.940;2022-10-18T07:41:11;40.95;;;19.88;;
31073;SDS011;17730;53.552;9.940;2022-10-18T07:43:41;44.70;;;18.15;;
31073;SDS011;17730;53.552;9.940;2022-10-18T07:46:12;34.70;;;18.35;;
31073;SDS011;17730;53.552;9.940;2022-10-18T07:48:38;37.13;;;18.17;;
31073;SDS011;17730;53.552;9.940;2022-10-18T07:51:04;43.47;;;19.67;;
31073;SDS011;17730;53.552;9.940;2022-10-18T07:53:30;38.38;;;18.70;;
31073;SDS011;17730;53.552;9.940;2022-10-18T07:55:59;41.10;;;19.70;;
31073;SDS011;17730;53.552;9.940;2022-10-18T07:58:26;38.65;;;17.75;;
31073;SDS011;17730;53.552;9.940;2022-10-18T08:00:52;35.22;;;18.08;;
31073;SDS011;17730;53.552;9.940;2022-10-18T08:03:17;37.28;;;17.63;;
31073;SDS011;17730;53.552;9.940;2022-10-18T08:05:49;34.40;;;17.75;;
31073;SDS011;17730;53.552;9.940;2022-10-18T08:08:16;46.25;;;18.95;;
31073;SDS011;17730;53.552;9.940;2022-10-18T08:10:42;39.28;;;17.40;;
31073;SDS011;17730;53.552;9.940;2022-10-18T08:13:07;35.40;;;17.58;;
31073;SDS011;17730;53.552;9.940;2022-10-18T08:15:34;36.05;;;18.40;;
31073;SDS011;17730;53.552;9.940;2022-10-18T08:18:01;36.20;;;17.83;;
31073;SDS011;17730;53.552;9.940;2022-10-18T08:20:30;35.60;;;16.58;;
31073;SDS011;17730;53.552;9.940;2022-10-18T08:22:57;39.45;;;17.73;;
31073;SDS011;17730;53.552;9.940;2022-10-18T08:25:24;38.72;;;18.15;;
31073;SDS011;17730;53.552;9.940;2022-10-18T08:27:51;41.50;;;18.88;;
31073;SDS011;17730;53.552;9.940;2022-10-18T08:30:19;40.20;;;16.67;;
31073;SDS011;17730;53.552;9.940;2022-10-18T08:32:44;31.13;;;16.05;;
31073;SDS011;17730;53.552;9.940;2022-10-18T08:35:11;32.95;;;16.30;;
31073;SDS011;17730;53.552;9.940;2022-10-18T08:37:37;41.50;;;16.95;;
31073;SDS011;17730;53.552;9.940;2022-10-18T08:40:04;31.33;;;16.02;;
31073;SDS011;17730;53.552;9.940;2022-10-18T08:45:16;27.70;;;15.25;;
31073;SDS011;17730;53.552;9.940;2022-10-18T08:47:43;30.58;;;16.50;;
31073;SDS011;17730;53.552;9.940;2022-10-18T08:50:14;32.45;;;15.55;;
31073;SDS011;17730;53.552;9.940;2022-10-18T08:52:50;32.28;;;14.25;;
31073;SDS011;17730;53.552;9.940;2022-10-18T08:55:22;31.60;;;14.57;;
31073;SDS011;17730;53.552;9.940;2022-10-18T08:57:52;32.25;;;14.77;;
31073;SDS011;17730;53.552;9.940;2022-10-18T09:00:21;29.88;;;14.05;;
31073;SDS011;17730;53.552;9.940;2022-10-18T09:11:38;33.25;;;15.40;;
31073;SDS011;17730;53.552;9.940;2022-10-18T09:14:20;31.27;;;14.88;;
31073;SDS011;17730;53.552;9.940;2022-10-18T09:17:13;28.67;;;15.95;;
31073;SDS011;17730;53.552;9.940;2022-10-18T09:25:32;26.98;;;13.98;;
31073;SDS011;17730;53.552;9.940;2022-10-18T09:33:26;23.63;;;14.15;;
31073;SDS011;17730;53.552;9.940;2022-10-18T09:35:55;26.83;;;14.65;;
31073;SDS011;17730;53.552;9.940;2022-10-18T09:38:32;26.13;;;13.18;;
31073;SDS011;17730;53.552;9.940;2022-10-18T09:41:09;27.45;;;12.15;;
31073;SDS011;17730;53.552;9.940;2022-10-18T09:43:44;28.02;;;12.18;;
31073;SDS011;17730;53.552;9.940;2022-10-18T09:46:17;26.67;;;12.98;;
31073;SDS011;17730;53.552;9.940;2022-10-18T09:48:48;27.55;;;12.43;;
31073;SDS011;17730;53.552;9.940;2022-10-18T09:51:19;25.92;;;11.85;;
31073;SDS011;17730;53.552;9.940;2022-10-18T09:56:35;20.60;;;11.88;;
31073;SDS011;17730;53.552;9.940;2022-10-18T09:59:02;31.70;;;13.35;;
31073;SDS011;17730;53.552;9.940;2022-10-18T10:01:28;31.40;;;12.45;;
31073;SDS011;17730;53.552;9.940;2022-10-18T10:03:56;23.38;;;12.98;;
31073;SDS011;17730;53.552;9.940;2022-10-18T10:06:24;25.77;;;12.38;;
31073;SDS011;17730;53.552;9.940;2022-10-18T10:08:59;23.23;;;12.18;;
31073;SDS011;17730;53.552;9.940;2022-10-18T10:11:35;28.95;;;14.82;;
31073;SDS011;17730;53.552;9.940;2022-10-18T10:14:11;36.47;;;19.10;;
31073;SDS011;17730;53.552;9.940;2022-10-18T10:16:54;26.63;;;15.30;;
31073;SDS011;17730;53.552;9.940;2022-10-18T10:19:29;25.65;;;13.15;;
31073;SDS011;17730;53.552;9.940;2022-10-18T10:22:08;30.50;;;14.85;;
31073;SDS011;17730;53.552;9.940;2022-10-18T10:24:40;31.67;;;12.88;;
31073;SDS011;17730;53.552;9.940;2022-10-18T10:27:18;25.08;;;13.05;;
31073;SDS011;17730;53.552;9.940;2022-10-18T10:29:57;26.83;;;12.88;;
31073;SDS011;17730;53.552;9.940;2022-10-18T10:32:26;29.80;;;13.38;;
31073;SDS011;17730;53.552;9.940;2022-10-18T10:34:54;31.95;;;14.30;;
31073;SDS011;17730;53.552;9.940;2022-10-18T10:37:31;28.70;;;14.20;;
31073;SDS011;17730;53.552;9.940;2022-10-18T10:51:53;26.92;;;12.45;;
31073;SDS011;17730;53.552;9.940;2022-10-18T10:54:22;22.67;;;10.93;;
31073;SDS011;17730;53.552;9.940;2022-10-18T10:59:19;31.55;;;11.45;;
31073;SDS011;17730;53.552;9.940;2022-10-18T11:01:46;26.02;;;11.05;;
31073;SDS011;17730;53.552;9.940;2022-10-18T11:04:28;33.83;;;11.57;;
31073;SDS011;17730;53.552;9.940;2022-10-18T11:10:05;23.45;;;9.73;;
31073;SDS011;17730;53.552;9.940;2022-10-18T11:12:48;27.35;;;9.55;;
31073;SDS011;17730;53.552;9.940;2022-10-18T11:15:28;32.10;;;8.77;;
31073;SDS011;17730;53.552;9.940;2022-10-18T11:21:24;22.67;;;6.65;;
31073;SDS011;17730;53.552;9.940;2022-10-18T11:23:36;17.00;;;7.00;;
31073;SDS011;17730;53.552;9.940;2022-10-18T11:26:07;21.75;;;8.52;;
31073;SDS011;17730;53.552;9.940;2022-10-18T11:37:21;17.27;;;5.95;;
31073;SDS011;17730;53.552;9.940;2022-10-18T11:40:22;24.00;;;6.28;;
31073;SDS011;17730;53.552;9.940;2022-10-18T11:43:11;33.53;;;7.60;;
31073;SDS011;17730;53.552;9.940;2022-10-18T11:51:24;24.95;;;7.80;;
31073;SDS011;17730;53.552;9.940;2022-10-18T11:54:03;29.70;;;8.82;;
31073;SDS011;17730;53.552;9.940;2022-10-18T11:56:46;19.83;;;6.70;;
31073;SDS011;17730;53.552;9.940;2022-10-18T12:04:42;14.93;;;6.03;;
31073;SDS011;17730;53.552;9.940;2022-10-18T12:07:16;17.20;;;6.00;;
31073;SDS011;17730;53.552;9.940;2022-10-18T12:09:45;18.08;;;7.32;;
31073;SDS011;17730;53.552;9.940;2022-10-18T12:12:15;25.35;;;6.53;;
31073;SDS011;17730;53.552;9.940;2022-10-18T12:14:55;26.90;;;6.60;;
31073;SDS011;17730;53.552;9.940;2022-10-18T12:20:30;19.00;;;6.00;;
31073;SDS011;17730;53.552;9.940;2022-10-18T12:23:00;18.33;;;6.47;;
31073;SDS011;17730;53.552;9.940;2022-10-18T12:25:31;23.75;;;8.05;;
31073;SDS011;17730;53.552;9.940;2022-10-18T12:30:30;20.77;;;6.00;;
31073;SDS011;17730;53.552;9.940;2022-10-18T12:33:17;14.68;;;4.05;;
31073;SDS011;17730;53.552;9.940;2022-10-18T12:38:31;18.98;;;4.43;;
31073;SDS011;17730;53.552;9.940;2022-10-18T12:40:59;16.52;;;4.90;;
31073;SDS011;17730;53.552;9.940;2022-10-18T12:43:26;11.82;;;3.40;;
31073;SDS011;17730;53.552;9.940;2022-10-18T12:46:01;14.98;;;3.60;;
31073;SDS011;17730;53.552;9.940;2022-10-18T12:48:30;16.98;;;4.03;;
31073;SDS011;17730;53.552;9.940;2022-10-18T12:51:04;22.60;;;7.82;;
31073;SDS011;17730;53.552;9.940;2022-10-18T12:53:38;16.23;;;3.30;;
31073;SDS011;17730;53.552;9.940;2022-10-18T12:59:39;21.70;;;6.65;;
31073;SDS011;17730;53.552;9.940;2022-10-18T13:09:27;13.93;;;3.17;;
31073;SDS011;17730;53.552;9.940;2022-10-18T13:11:58;17.88;;;3.38;;
31073;SDS011;17730;53.552;9.940;2022-10-18T13:19:54;13.70;;;2.75;;
31073;SDS011;17730;53.552;9.940;2022-10-18T13:25:16;16.98;;;3.08;;
31073;SDS011;17730;53.552;9.940;2022-10-18T13:27:55;15.27;;;2.58;;
31073;SDS011;17730;53.552;9.940;2022-10-18T13:30:44;15.13;;;2.42;;
31073;SDS011;17730;53.552;9.940;2022-10-18T13:33:24;22.03;;;3.73;;
31073;SDS011;17730;53.552;9.940;2022-10-18T13:46:17;12.63;;;2.63;;
31073;SDS011;17730;53.552;9.940;2022-10-18T13:48:44;14.82;;;3.25;;
31073;SDS011;17730;53.552;9.940;2022-10-18T14:02:03;22.27;;;2.85;;
31073;SDS011;17730;53.552;9.940;2022-10-18T14:07:44;14.75;;;2.45;;
31073;SDS011;17730;53.552;9.940;2022-10-18T14:10:21;15.02;;;2.88;;
31073;SDS011;17730;53.552;9.940;2022-10-18T14:12:51;13.35;;;2.63;;
31073;SDS011;17730;53.552;9.940;2022-10-18T14:15:25;12.32;;;2.38;;
31073;SDS011;17730;53.552;9.940;2022-10-18T14:18:57;15.23;;;2.72;;
31073;SDS011;17730;53.552;9.940;2022-10-18T14:20:56;18.15;;;3.30;;
31073;SDS011;17730;53.552;9.940;2022-10-18T14:23:26;19.30;;;3.30;;
31073;SDS011;17730;53.552;9.940;2022-10-18T14:26:08;11.43;;;3.30;;
31073;SDS011;17730;53.552;9.940;2022-10-18T14:28:41;22.35;;;4.05;;
31073;SDS011;17730;53.552;9.940;2022-10-18T14:31:14;16.90;;;2.90;;
31073;SDS011;17730;53.552;9.940;2022-10-18T14:38:48;15.52;;;3.60;;
31073;SDS011;17730;53.552;9.940;2022-10-18T14:41:23;20.67;;;6.60;;
31073;SDS011;17730;53.552;9.940;2022-10-18T14:43:51;16.60;;;4.70;;
31073;SDS011;17730;53.552;9.940;2022-10-18T14:48:51;15.98;;;3.67;;
31073;SDS011;17730;53.552;9.940;2022-10-18T14:51:17;14.00;;;2.88;;
31073;SDS011;17730;53.552;9.940;2022-10-18T14:53:43;20.55;;;3.38;;
31073;SDS011;17730;53.552;9.940;2022-10-18T14:56:18;29.83;;;4.60;;
31073;SDS011;17730;53.552;9.940;2022-10-18T14:58:55;18.25;;;3.42;;
31073;SDS011;17730;53.552;9.940;2022-10-18T15:01:24;24.30;;;7.78;;
31073;SDS011;17730;53.552;9.940;2022-10-18T15:03:57;25.30;;;6.80;;
31073;SDS011;17730;53.552;9.940;2022-10-18T15:06:27;22.60;;;8.25;;
31073;SDS011;17730;53.552;9.940;2022-10-18T15:08:54;19.42;;;5.38;;
31073;SDS011;17730;53.552;9.940;2022-10-18T15:11:22;21.10;;;6.95;;
31073;SDS011;17730;53.552;9.940;2022-10-18T15:13:53;27.80;;;7.03;;
31073;SDS011;17730;53.552;9.940;2022-10-18T15:16:33;15.70;;;2.72;;
31073;SDS011;17730;53.552;9.940;2022-10-18T15:19:04;27.20;;;7.35;;
31073;SDS011;17730;53.552;9.940;2022-10-18T15:21:31;18.75;;;4.15;;
31073;SDS011;17730;53.552;9.940;2022-10-18T15:24:18;17.02;;;4.20;;
31073;SDS011;17730;53.552;9.940;2022-10-18T15:27:13;14.67;;;2.70;;
31073;SDS011;17730;53.552;9.940;2022-10-18T15:29:41;21.27;;;3.47;;
31073;SDS011;17730;53.552;9.940;2022-10-18T15:32:17;20.25;;;4.43;;
31073;SDS011;17730;53.552;9.940;2022-10-18T15:34:48;13.65;;;3.13;;
31073;SDS011;17730;53.552;9.940;2022-10-18T15:37:36;14.40;;;2.85;;
31073;SDS011;17730;53.552;9.940;2022-10-18T15:40:15;32.35;;;7.70;;
31073;SDS011;17730;53.552;9.940;2022-10-18T15:42:41;25.52;;;5.70;;
31073;SDS011;17730;53.552;9.940;2022-10-18T15:47:58;23.25;;;4.57;;
31073;SDS011;17730;53.552;9.940;2022-10-18T15:50:42;19.17;;;2.85;;
31073;SDS011;17730;53.552;9.940;2022-10-18T15:58:25;22.73;;;6.15;;
31073;SDS011;17730;53.552;9.940;2022-10-18T16:01:00;13.43;;;3.15;;
31073;SDS011;17730;53.552;9.940;2022-10-18T16:03:28;26.58;;;8.95;;
31073;SDS011;17730;53.552;9.940;2022-10-18T16:06:02;24.90;;;6.13;;
31073;SDS011;17730;53.552;9.940;2022-10-18T16:08:35;23.25;;;8.30;;
31073;SDS011;17730;53.552;9.940;2022-10-18T16:11:05;21.02;;;7.28;;
31073;SDS011;17730;53.552;9.940;2022-10-18T16:13:32;24.88;;;6.82;;
31073;SDS011;17730;53.552;9.940;2022-10-18T16:15:58;21.25;;;6.70;;
31073;SDS011;17730;53.552;9.940;2022-10-18T16:18:24;25.90;;;7.78;;
31073;SDS011;17730;53.552;9.940;2022-10-18T16:20:51;31.95;;;8.73;;
31073;SDS011;17730;53.552;9.940;2022-10-18T16:23:18;23.35;;;7.00;;
31073;SDS011;17730;53.552;9.940;2022-10-18T16:25:49;21.92;;;5.43;;
31073;SDS011;17730;53.552;9.940;2022-10-18T16:28:16;26.92;;;5.53;;
31073;SDS011;17730;53.552;9.940;2022-10-18T16:30:46;17.02;;;6.00;;
31073;SDS011;17730;53.552;9.940;2022-10-18T16:33:20;26.02;;;9.13;;
31073;SDS011;17730;53.552;9.940;2022-10-18T16:35:45;18.63;;;4.05;;
31073;SDS011;17730;53.552;9.940;2022-10-18T16:38:21;22.58;;;3.97;;
31073;SDS011;17730;53.552;9.940;2022-10-18T16:40:51;14.10;;;3.15;;
31073;SDS011;17730;53.552;9.940;2022-10-18T16:43:17;17.88;;;2.25;;
31073;SDS011;17730;53.552;9.940;2022-10-18T16:45:43;13.55;;;2.75;;
31073;SDS011;17730;53.552;9.940;2022-10-18T16:48:16;14.10;;;2.78;;
31073;SDS011;17730;53.552;9.940;2022-10-18T16:50:43;16.50;;;3.47;;
31073;SDS011;17730;53.552;9.940;2022-10-18T16:53:09;18.77;;;3.35;;
31073;SDS011;17730;53.552;9.940;2022-10-18T16:55:36;22.08;;;3.92;;
31073;SDS011;17730;53.552;9.940;2022-10-18T16:58:03;25.30;;;4.03;;
31073;SDS011;17730;53.552;9.940;2022-10-18T17:00:30;20.38;;;3.65;;
31073;SDS011;17730;53.552;9.940;2022-10-18T17:02:58;10.43;;;2.42;;
31073;SDS011;17730;53.552;9.940;2022-10-18T17:05:23;10.25;;;3.00;;
31073;SDS011;17730;53.552;9.940;2022-10-18T17:07:49;17.70;;;3.83;;
31073;SDS011;17730;53.552;9.940;2022-10-18T17:10:17;21.25;;;3.33;;
31073;SDS011;17730;53.552;9.940;2022-10-18T17:12:44;14.77;;;2.70;;
31073;SDS011;17730;53.552;9.940;2022-10-18T17:15:10;16.83;;;2.70;;
31073;SDS011;17730;53.552;9.940;2022-10-18T17:17:37;25.48;;;3.15;;